sensor_id;sensor_type;location;lat;lon;timestamp;P1;durP1;ratioP1;P2;durP2;ratioP2
12088;SDS011;6107;49.078;8.578;2023-04-19T00:00:37;19.10;;;11.07;;
12088;SDS011;6107;49.078;8.578;2023-04-19T00:03:04;17.80;;;10.47;;
12088;SDS011;6107;49.078;8.578;2023-04-19T00:05:30;18.53;;;11.30;;
12088;SDS011;6107;49.078;8.578;2023-04-19T00:07:56;18.10;;;10.30;;
12088;SDS011;6107;49.078;8.578;2023-04-19T00:10:22;19.67;;;11.20;;
12088;SDS011;6107;49.078;8.578;2023-04-19T00:12:47;19.20;;;10.77;;
12088;SDS011;6107;49.078;8.578;2023-04-19T00:15:13;17.80;;;10.93;;
12088;SDS011;6107;49.078;8.578;2023-04-19T00:17:38;19.53;;;10.57;;
12088;SDS011;6107;49.078;8.578;2023-04-19T00:20:04;15.57;;;10.33;;
12088;SDS011;6107;49.078;8.578;2023-04-19T00:22:30;16.63;;;10.53;;
12088;SDS011;6107;49.078;8.578;2023-04-19T00:24:56;17.13;;;10.70;;
12088;SDS011;6107;49.078;8.578;2023-04-19T00:27:21;20.37;;;11.73;;
12088;SDS011;6107;49.078;8.578;2023-04-19T00:29:47;21.57;;;11.43;;
12088;SDS011;6107;49.078;8.578;2023-04-19T00:32:12;19.27;;;10.93;;
12088;SDS011;6107;49.078;8.578;2023-04-19T00:34:38;18.60;;;10.77;;
12088;SDS011;6107;49.078;8.578;2023-04-19T00:37:04;19.37;;;10.57;;
12088;SDS011;6107;49.078;8.578;2023-04-19T00:39:30;17.93;;;10.97;;
12088;SDS011;6107;49.078;8.578;2023-04-19T00:41:55;17.20;;;10.30;;
12088;SDS011;6107;49.078;8.578;2023-04-19T00:44:25;18.70;;;11.63;;
12088;SDS011;6107;49.078;8.578;2023-04-19T00:46:50;18.33;;;11.40;;
12088;SDS011;6107;49.078;8.578;2023-04-19T00:49:16;17.13;;;10.33;;
12088;SDS011;6107;49.078;8.578;2023-04-19T00:51:44;19.90;;;10.90;;
12088;SDS011;6107;49.078;8.578;2023-04-19T00:54:11;19.13;;;11.07;;
12088;SDS011;6107;49.078;8.578;2023-04-19T00:56:38;17.07;;;10.63;;
12088;SDS011;6107;49.078;8.578;2023-04-19T00:59:04;18.03;;;10.57;;
12088;SDS011;6107;49.078;8.578;2023-04-19T01:01:30;38.03;;;19.97;;
12088;SDS011;6107;49.078;8.578;2023-04-19T01:03:56;18.90;;;11.40;;
12088;SDS011;6107;49.078;8.578;2023-04-19T01:06:22;18.17;;;11.57;;
12088;SDS011;6107;49.078;8.578;2023-04-19T01:08:47;19.87;;;12.30;;
12088;SDS011;6107;49.078;8.578;2023-04-19T01:11:13;21.13;;;12.50;;
12088;SDS011;6107;49.078;8.578;2023-04-19T01:13:38;20.03;;;12.30;;
12088;SDS011;6107;49.078;8.578;2023-04-19T01:16:05;18.33;;;12.00;;
12088;SDS011;6107;49.078;8.578;2023-04-19T01:18:30;18.70;;;11.63;;
12088;SDS011;6107;49.078;8.578;2023-04-19T01:21:01;20.67;;;11.63;;
12088;SDS011;6107;49.078;8.578;2023-04-19T01:23:28;21.20;;;11.60;;
12088;SDS011;6107;49.078;8.578;2023-04-19T01:25:53;19.30;;;11.80;;
12088;SDS011;6107;49.078;8.578;2023-04-19T01:28:19;19.23;;;11.53;;
12088;SDS011;6107;49.078;8.578;2023-04-19T01:30:44;19.50;;;11.73;;
12088;SDS011;6107;49.078;8.578;2023-04-19T01:33:10;19.57;;;11.03;;
12088;SDS011;6107;49.078;8.578;2023-04-19T01:35:35;19.20;;;11.53;;
12088;SDS011;6107;49.078;8.578;2023-04-19T01:38:01;18.47;;;11.70;;
12088;SDS011;6107;49.078;8.578;2023-04-19T01:40:26;20.43;;;12.27;;
12088;SDS011;6107;49.078;8.578;2023-04-19T01:42:52;20.83;;;12.07;;
12088;SDS011;6107;49.078;8.578;2023-04-19T01:45:17;22.53;;;12.67;;
12088;SDS011;6107;49.078;8.578;2023-04-19T01:47:44;20.50;;;11.63;;
12088;SDS011;6107;49.078;8.578;2023-04-19T01:50:10;21.57;;;12.27;;
12088;SDS011;6107;49.078;8.578;2023-04-19T01:52:35;20.07;;;12.07;;
12088;SDS011;6107;49.078;8.578;2023-04-19T01:55:01;20.20;;;11.73;;
12088;SDS011;6107;49.078;8.578;2023-04-19T01:57:26;19.70;;;11.73;;
12088;SDS011;6107;49.078;8.578;2023-04-19T01:59:52;20.60;;;12.03;;
12088;SDS011;6107;49.078;8.578;2023-04-19T02:02:18;18.47;;;11.40;;
12088;SDS011;6107;49.078;8.578;2023-04-19T02:04:43;21.80;;;12.53;;
12088;SDS011;6107;49.078;8.578;2023-04-19T02:07:09;20.80;;;12.43;;
12088;SDS011;6107;49.078;8.578;2023-04-19T02:09:35;19.13;;;11.83;;
12088;SDS011;6107;49.078;8.578;2023-04-19T02:12:02;18.77;;;11.70;;
12088;SDS011;6107;49.078;8.578;2023-04-19T02:14:29;19.57;;;11.93;;
12088;SDS011;6107;49.078;8.578;2023-04-19T02:16:54;21.50;;;11.17;;
12088;SDS011;6107;49.078;8.578;2023-04-19T02:19:20;22.10;;;12.77;;
12088;SDS011;6107;49.078;8.578;2023-04-19T02:21:46;20.53;;;11.57;;
12088;SDS011;6107;49.078;8.578;2023-04-19T02:24:11;17.70;;;11.20;;
12088;SDS011;6107;49.078;8.578;2023-04-19T02:26:38;20.70;;;11.83;;
12088;SDS011;6107;49.078;8.578;2023-04-19T02:29:03;19.90;;;11.17;;
12088;SDS011;6107;49.078;8.578;2023-04-19T02:31:29;20.47;;;11.73;;
12088;SDS011;6107;49.078;8.578;2023-04-19T02:33:55;18.77;;;11.13;;
12088;SDS011;6107;49.078;8.578;2023-04-19T02:36:20;21.20;;;11.47;;
12088;SDS011;6107;49.078;8.578;2023-04-19T02:38:46;18.17;;;12.07;;
12088;SDS011;6107;49.078;8.578;2023-04-19T02:41:11;17.37;;;9.93;;
12088;SDS011;6107;49.078;8.578;2023-04-19T02:43:37;18.87;;;11.37;;
12088;SDS011;6107;49.078;8.578;2023-04-19T02:46:02;17.63;;;12.00;;
12088;SDS011;6107;49.078;8.578;2023-04-19T02:48:28;19.43;;;11.50;;
12088;SDS011;6107;49.078;8.578;2023-04-19T02:50:53;18.00;;;10.70;;
12088;SDS011;6107;49.078;8.578;2023-04-19T02:53:19;17.10;;;11.23;;
12088;SDS011;6107;49.078;8.578;2023-04-19T02:55:44;19.93;;;11.37;;
12088;SDS011;6107;49.078;8.578;2023-04-19T02:58:10;18.27;;;11.40;;
12088;SDS011;6107;49.078;8.578;2023-04-19T03:00:35;17.70;;;10.87;;
12088;SDS011;6107;49.078;8.578;2023-04-19T03:03:01;17.63;;;10.30;;
12088;SDS011;6107;49.078;8.578;2023-04-19T03:05:28;18.47;;;10.40;;
12088;SDS011;6107;49.078;8.578;2023-04-19T03:07:54;17.70;;;10.00;;
12088;SDS011;6107;49.078;8.578;2023-04-19T03:10:19;17.60;;;10.53;;
12088;SDS011;6107;49.078;8.578;2023-04-19T03:12:45;18.13;;;10.47;;
12088;SDS011;6107;49.078;8.578;2023-04-19T03:15:10;15.60;;;10.10;;
12088;SDS011;6107;49.078;8.578;2023-04-19T03:17:36;20.37;;;11.10;;
12088;SDS011;6107;49.078;8.578;2023-04-19T03:20:02;20.43;;;11.03;;
12088;SDS011;6107;49.078;8.578;2023-04-19T03:22:34;20.37;;;11.13;;
12088;SDS011;6107;49.078;8.578;2023-04-19T03:25:00;16.87;;;9.97;;
12088;SDS011;6107;49.078;8.578;2023-04-19T03:27:26;16.53;;;10.40;;
12088;SDS011;6107;49.078;8.578;2023-04-19T03:29:51;17.57;;;9.97;;
12088;SDS011;6107;49.078;8.578;2023-04-19T03:32:17;19.07;;;10.33;;
12088;SDS011;6107;49.078;8.578;2023-04-19T03:34:42;37.27;;;23.77;;
12088;SDS011;6107;49.078;8.578;2023-04-19T03:37:08;18.07;;;10.63;;
12088;SDS011;6107;49.078;8.578;2023-04-19T03:39:34;17.50;;;10.57;;
12088;SDS011;6107;49.078;8.578;2023-04-19T03:41:59;16.57;;;10.40;;
12088;SDS011;6107;49.078;8.578;2023-04-19T03:44:25;18.10;;;10.07;;
12088;SDS011;6107;49.078;8.578;2023-04-19T03:46:51;15.00;;;9.80;;
12088;SDS011;6107;49.078;8.578;2023-04-19T03:49:16;17.13;;;10.50;;
12088;SDS011;6107;49.078;8.578;2023-04-19T03:51:42;17.00;;;10.30;;
12088;SDS011;6107;49.078;8.578;2023-04-19T03:54:08;14.60;;;9.40;;
12088;SDS011;6107;49.078;8.578;2023-04-19T03:56:33;16.63;;;10.27;;
12088;SDS011;6107;49.078;8.578;2023-04-19T03:58:59;16.30;;;9.90;;
12088;SDS011;6107;49.078;8.578;2023-04-19T04:01:24;14.63;;;9.43;;
12088;SDS011;6107;49.078;8.578;2023-04-19T04:03:50;35.60;;;17.77;;
12088;SDS011;6107;49.078;8.578;2023-04-19T04:06:16;15.30;;;10.17;;
12088;SDS011;6107;49.078;8.578;2023-04-19T04:08:41;16.87;;;9.77;;
12088;SDS011;6107;49.078;8.578;2023-04-19T04:11:07;15.27;;;9.93;;
12088;SDS011;6107;49.078;8.578;2023-04-19T04:13:33;14.77;;;9.13;;
12088;SDS011;6107;49.078;8.578;2023-04-19T04:15:58;13.10;;;9.10;;
12088;SDS011;6107;49.078;8.578;2023-04-19T04:18:24;14.60;;;9.40;;
12088;SDS011;6107;49.078;8.578;2023-04-19T04:20:52;14.77;;;9.03;;
12088;SDS011;6107;49.078;8.578;2023-04-19T04:23:17;16.40;;;9.53;;
12088;SDS011;6107;49.078;8.578;2023-04-19T04:25:45;14.27;;;8.93;;
12088;SDS011;6107;49.078;8.578;2023-04-19T04:28:11;13.00;;;8.83;;
12088;SDS011;6107;49.078;8.578;2023-04-19T04:30:37;13.53;;;9.13;;
12088;SDS011;6107;49.078;8.578;2023-04-19T04:33:04;15.60;;;9.40;;
12088;SDS011;6107;49.078;8.578;2023-04-19T04:35:30;14.80;;;9.20;;
12088;SDS011;6107;49.078;8.578;2023-04-19T04:37:55;15.77;;;9.27;;
12088;SDS011;6107;49.078;8.578;2023-04-19T04:40:21;15.77;;;8.93;;
12088;SDS011;6107;49.078;8.578;2023-04-19T04:42:47;17.30;;;10.17;;
12088;SDS011;6107;49.078;8.578;2023-04-19T04:45:13;14.53;;;9.63;;
12088;SDS011;6107;49.078;8.578;2023-04-19T04:47:42;14.57;;;10.37;;
12088;SDS011;6107;49.078;8.578;2023-04-19T04:50:10;15.63;;;9.47;;
12088;SDS011;6107;49.078;8.578;2023-04-19T04:52:35;13.23;;;8.83;;
12088;SDS011;6107;49.078;8.578;2023-04-19T04:55:01;12.43;;;8.77;;
12088;SDS011;6107;49.078;8.578;2023-04-19T04:57:26;16.77;;;10.10;;
12088;SDS011;6107;49.078;8.578;2023-04-19T04:59:52;14.33;;;9.20;;
12088;SDS011;6107;49.078;8.578;2023-04-19T05:02:17;15.40;;;9.70;;
12088;SDS011;6107;49.078;8.578;2023-04-19T05:04:43;14.17;;;9.50;;
12088;SDS011;6107;49.078;8.578;2023-04-19T05:07:08;16.10;;;9.87;;
12088;SDS011;6107;49.078;8.578;2023-04-19T05:09:33;15.07;;;9.87;;
12088;SDS011;6107;49.078;8.578;2023-04-19T05:11:59;17.03;;;9.93;;
12088;SDS011;6107;49.078;8.578;2023-04-19T05:14:25;15.30;;;8.97;;
12088;SDS011;6107;49.078;8.578;2023-04-19T05:16:51;15.23;;;9.03;;
12088;SDS011;6107;49.078;8.578;2023-04-19T05:19:16;15.63;;;9.73;;
12088;SDS011;6107;49.078;8.578;2023-04-19T05:21:42;15.10;;;9.60;;
12088;SDS011;6107;49.078;8.578;2023-04-19T05:24:07;14.73;;;9.47;;
12088;SDS011;6107;49.078;8.578;2023-04-19T05:26:34;14.87;;;8.90;;
12088;SDS011;6107;49.078;8.578;2023-04-19T05:28:59;14.70;;;9.73;;
12088;SDS011;6107;49.078;8.578;2023-04-19T05:31:25;15.30;;;9.30;;
12088;SDS011;6107;49.078;8.578;2023-04-19T05:33:50;13.83;;;8.80;;
12088;SDS011;6107;49.078;8.578;2023-04-19T05:36:16;14.23;;;9.10;;
12088;SDS011;6107;49.078;8.578;2023-04-19T05:38:41;17.37;;;10.43;;
12088;SDS011;6107;49.078;8.578;2023-04-19T05:41:07;15.57;;;9.87;;
12088;SDS011;6107;49.078;8.578;2023-04-19T05:43:32;18.60;;;10.40;;
12088;SDS011;6107;49.078;8.578;2023-04-19T05:45:58;17.27;;;10.10;;
12088;SDS011;6107;49.078;8.578;2023-04-19T05:48:23;17.10;;;10.23;;
12088;SDS011;6107;49.078;8.578;2023-04-19T05:50:52;15.50;;;10.30;;
12088;SDS011;6107;49.078;8.578;2023-04-19T05:53:19;14.20;;;9.47;;
12088;SDS011;6107;49.078;8.578;2023-04-19T05:55:44;15.10;;;9.77;;
12088;SDS011;6107;49.078;8.578;2023-04-19T05:58:12;15.00;;;9.83;;
12088;SDS011;6107;49.078;8.578;2023-04-19T06:00:37;15.07;;;9.70;;
12088;SDS011;6107;49.078;8.578;2023-04-19T06:03:03;14.17;;;9.47;;
12088;SDS011;6107;49.078;8.578;2023-04-19T06:05:28;15.73;;;9.57;;
12088;SDS011;6107;49.078;8.578;2023-04-19T06:07:54;13.20;;;8.80;;
12088;SDS011;6107;49.078;8.578;2023-04-19T06:10:20;12.17;;;8.13;;
12088;SDS011;6107;49.078;8.578;2023-04-19T06:12:47;14.73;;;8.67;;
12088;SDS011;6107;49.078;8.578;2023-04-19T06:15:12;13.97;;;8.20;;
12088;SDS011;6107;49.078;8.578;2023-04-19T06:17:38;14.10;;;8.00;;
12088;SDS011;6107;49.078;8.578;2023-04-19T06:20:03;12.70;;;8.43;;
12088;SDS011;6107;49.078;8.578;2023-04-19T06:22:31;14.20;;;8.00;;
12088;SDS011;6107;49.078;8.578;2023-04-19T06:24:57;12.90;;;8.80;;
12088;SDS011;6107;49.078;8.578;2023-04-19T06:27:22;12.50;;;8.30;;
12088;SDS011;6107;49.078;8.578;2023-04-19T06:29:48;14.47;;;8.93;;
12088;SDS011;6107;49.078;8.578;2023-04-19T06:32:13;12.03;;;8.10;;
12088;SDS011;6107;49.078;8.578;2023-04-19T06:34:39;13.33;;;8.43;;
12088;SDS011;6107;49.078;8.578;2023-04-19T06:37:04;14.07;;;9.00;;
12088;SDS011;6107;49.078;8.578;2023-04-19T06:39:30;16.43;;;10.43;;
12088;SDS011;6107;49.078;8.578;2023-04-19T06:41:55;12.97;;;8.73;;
12088;SDS011;6107;49.078;8.578;2023-04-19T06:44:21;13.17;;;8.70;;
12088;SDS011;6107;49.078;8.578;2023-04-19T06:46:46;15.37;;;8.87;;
12088;SDS011;6107;49.078;8.578;2023-04-19T06:49:12;14.50;;;8.70;;
12088;SDS011;6107;49.078;8.578;2023-04-19T06:51:38;14.20;;;8.47;;
12088;SDS011;6107;49.078;8.578;2023-04-19T06:54:04;12.97;;;8.63;;
12088;SDS011;6107;49.078;8.578;2023-04-19T06:56:39;13.10;;;8.97;;
12088;SDS011;6107;49.078;8.578;2023-04-19T06:59:09;12.40;;;9.30;;
12088;SDS011;6107;49.078;8.578;2023-04-19T07:01:35;13.13;;;8.97;;
12088;SDS011;6107;49.078;8.578;2023-04-19T07:04:01;13.47;;;9.10;;
12088;SDS011;6107;49.078;8.578;2023-04-19T07:06:27;13.50;;;8.83;;
12088;SDS011;6107;49.078;8.578;2023-04-19T07:08:53;12.57;;;8.73;;
12088;SDS011;6107;49.078;8.578;2023-04-19T07:11:19;14.80;;;8.97;;
12088;SDS011;6107;49.078;8.578;2023-04-19T07:13:44;14.97;;;8.63;;
12088;SDS011;6107;49.078;8.578;2023-04-19T07:16:10;15.60;;;9.37;;
12088;SDS011;6107;49.078;8.578;2023-04-19T07:18:35;12.73;;;8.43;;
12088;SDS011;6107;49.078;8.578;2023-04-19T07:21:01;17.07;;;10.87;;
12088;SDS011;6107;49.078;8.578;2023-04-19T07:23:26;13.67;;;9.23;;
12088;SDS011;6107;49.078;8.578;2023-04-19T07:25:52;15.97;;;10.37;;
12088;SDS011;6107;49.078;8.578;2023-04-19T07:28:17;13.07;;;8.20;;
12088;SDS011;6107;49.078;8.578;2023-04-19T07:30:42;20.37;;;11.83;;
12088;SDS011;6107;49.078;8.578;2023-04-19T07:33:10;17.03;;;10.07;;
12088;SDS011;6107;49.078;8.578;2023-04-19T07:35:37;14.07;;;9.23;;
12088;SDS011;6107;49.078;8.578;2023-04-19T07:38:03;15.83;;;9.80;;
12088;SDS011;6107;49.078;8.578;2023-04-19T07:40:28;14.57;;;8.93;;
12088;SDS011;6107;49.078;8.578;2023-04-19T07:42:54;13.33;;;8.57;;
12088;SDS011;6107;49.078;8.578;2023-04-19T07:45:20;16.27;;;9.43;;
12088;SDS011;6107;49.078;8.578;2023-04-19T07:47:46;14.03;;;9.23;;
12088;SDS011;6107;49.078;8.578;2023-04-19T07:50:11;14.47;;;9.70;;
12088;SDS011;6107;49.078;8.578;2023-04-19T07:52:37;15.07;;;9.67;;
12088;SDS011;6107;49.078;8.578;2023-04-19T07:55:02;15.30;;;9.37;;
12088;SDS011;6107;49.078;8.578;2023-04-19T07:57:28;14.97;;;9.53;;
12088;SDS011;6107;49.078;8.578;2023-04-19T07:59:53;14.20;;;9.53;;
12088;SDS011;6107;49.078;8.578;2023-04-19T08:02:22;13.83;;;9.50;;
12088;SDS011;6107;49.078;8.578;2023-04-19T08:04:51;15.67;;;9.67;;
12088;SDS011;6107;49.078;8.578;2023-04-19T08:07:16;18.07;;;13.27;;
12088;SDS011;6107;49.078;8.578;2023-04-19T08:09:41;15.97;;;10.00;;
12088;SDS011;6107;49.078;8.578;2023-04-19T08:12:07;17.10;;;9.27;;
12088;SDS011;6107;49.078;8.578;2023-04-19T08:14:32;16.70;;;9.47;;
12088;SDS011;6107;49.078;8.578;2023-04-19T08:16:58;14.20;;;9.23;;
12088;SDS011;6107;49.078;8.578;2023-04-19T08:19:23;14.53;;;9.57;;
12088;SDS011;6107;49.078;8.578;2023-04-19T08:21:49;13.40;;;9.00;;
12088;SDS011;6107;49.078;8.578;2023-04-19T08:24:14;12.63;;;9.17;;
12088;SDS011;6107;49.078;8.578;2023-04-19T08:26:40;13.40;;;9.17;;
12088;SDS011;6107;49.078;8.578;2023-04-19T08:29:06;17.53;;;10.40;;
12088;SDS011;6107;49.078;8.578;2023-04-19T08:31:32;15.43;;;10.30;;
12088;SDS011;6107;49.078;8.578;2023-04-19T08:33:57;13.70;;;9.60;;
12088;SDS011;6107;49.078;8.578;2023-04-19T08:36:24;15.40;;;9.70;;
12088;SDS011;6107;49.078;8.578;2023-04-19T08:38:50;15.80;;;9.50;;
12088;SDS011;6107;49.078;8.578;2023-04-19T08:41:16;14.00;;;9.13;;
12088;SDS011;6107;49.078;8.578;2023-04-19T08:43:43;15.27;;;9.07;;
12088;SDS011;6107;49.078;8.578;2023-04-19T08:46:11;12.87;;;8.57;;
12088;SDS011;6107;49.078;8.578;2023-04-19T08:48:37;14.07;;;9.43;;
12088;SDS011;6107;49.078;8.578;2023-04-19T08:51:04;11.90;;;8.57;;
12088;SDS011;6107;49.078;8.578;2023-04-19T08:53:31;13.63;;;9.10;;
12088;SDS011;6107;49.078;8.578;2023-04-19T08:55:58;29.33;;;15.23;;
12088;SDS011;6107;49.078;8.578;2023-04-19T08:58:24;16.27;;;10.57;;
12088;SDS011;6107;49.078;8.578;2023-04-19T09:00:50;12.47;;;8.60;;
12088;SDS011;6107;49.078;8.578;2023-04-19T09:03:16;14.00;;;9.40;;
12088;SDS011;6107;49.078;8.578;2023-04-19T09:05:41;13.23;;;9.00;;
12088;SDS011;6107;49.078;8.578;2023-04-19T09:08:23;12.93;;;8.93;;
12088;SDS011;6107;49.078;8.578;2023-04-19T09:10:54;14.37;;;9.20;;
12088;SDS011;6107;49.078;8.578;2023-04-19T09:13:23;13.70;;;9.07;;
12088;SDS011;6107;49.078;8.578;2023-04-19T09:15:50;12.53;;;8.83;;
12088;SDS011;6107;49.078;8.578;2023-04-19T09:18:17;13.60;;;9.60;;
12088;SDS011;6107;49.078;8.578;2023-04-19T09:20:43;13.60;;;9.00;;
12088;SDS011;6107;49.078;8.578;2023-04-19T09:23:10;12.53;;;9.27;;
12088;SDS011;6107;49.078;8.578;2023-04-19T09:25:38;13.57;;;9.47;;
12088;SDS011;6107;49.078;8.578;2023-04-19T09:28:11;14.53;;;9.20;;
12088;SDS011;6107;49.078;8.578;2023-04-19T09:30:38;14.40;;;8.73;;
12088;SDS011;6107;49.078;8.578;2023-04-19T09:33:03;15.90;;;10.73;;
12088;SDS011;6107;49.078;8.578;2023-04-19T09:35:42;14.63;;;9.00;;
12088;SDS011;6107;49.078;8.578;2023-04-19T09:38:11;14.30;;;8.77;;
12088;SDS011;6107;49.078;8.578;2023-04-19T09:40:37;11.87;;;8.57;;
12088;SDS011;6107;49.078;8.578;2023-04-19T09:43:03;11.47;;;8.27;;
12088;SDS011;6107;49.078;8.578;2023-04-19T09:45:39;14.30;;;9.93;;
12088;SDS011;6107;49.078;8.578;2023-04-19T09:48:06;14.00;;;9.67;;
12088;SDS011;6107;49.078;8.578;2023-04-19T09:50:32;12.17;;;8.27;;
12088;SDS011;6107;49.078;8.578;2023-04-19T09:52:58;15.40;;;8.20;;
12088;SDS011;6107;49.078;8.578;2023-04-19T09:55:25;11.00;;;8.63;;
12088;SDS011;6107;49.078;8.578;2023-04-19T09:57:51;10.87;;;8.07;;
12088;SDS011;6107;49.078;8.578;2023-04-19T10:00:17;11.57;;;7.93;;
12088;SDS011;6107;49.078;8.578;2023-04-19T10:02:45;14.83;;;8.83;;
12088;SDS011;6107;49.078;8.578;2023-04-19T10:05:18;12.73;;;8.97;;
12088;SDS011;6107;49.078;8.578;2023-04-19T10:07:45;12.37;;;8.57;;
12088;SDS011;6107;49.078;8.578;2023-04-19T10:10:13;12.27;;;8.00;;
12088;SDS011;6107;49.078;8.578;2023-04-19T10:12:41;11.60;;;8.87;;
12088;SDS011;6107;49.078;8.578;2023-04-19T10:15:12;13.43;;;8.27;;
12088;SDS011;6107;49.078;8.578;2023-04-19T10:17:38;12.03;;;8.93;;
12088;SDS011;6107;49.078;8.578;2023-04-19T10:20:16;12.87;;;8.40;;
12088;SDS011;6107;49.078;8.578;2023-04-19T10:22:46;10.30;;;7.77;;
12088;SDS011;6107;49.078;8.578;2023-04-19T10:25:13;10.80;;;7.90;;
12088;SDS011;6107;49.078;8.578;2023-04-19T10:27:41;11.27;;;7.67;;
12088;SDS011;6107;49.078;8.578;2023-04-19T10:30:16;11.93;;;7.13;;
12088;SDS011;6107;49.078;8.578;2023-04-19T10:32:50;10.87;;;7.20;;
12088;SDS011;6107;49.078;8.578;2023-04-19T10:35:24;10.00;;;7.20;;
12088;SDS011;6107;49.078;8.578;2023-04-19T10:38:06;11.63;;;7.57;;
12088;SDS011;6107;49.078;8.578;2023-04-19T10:43:19;10.30;;;7.00;;
12088;SDS011;6107;49.078;8.578;2023-04-19T10:45:45;12.53;;;7.63;;
12088;SDS011;6107;49.078;8.578;2023-04-19T10:51:10;8.73;;;6.67;;
12088;SDS011;6107;49.078;8.578;2023-04-19T10:53:44;9.90;;;6.77;;
12088;SDS011;6107;49.078;8.578;2023-04-19T10:56:11;12.60;;;8.00;;
12088;SDS011;6107;49.078;8.578;2023-04-19T11:01:40;10.20;;;6.83;;
12088;SDS011;6107;49.078;8.578;2023-04-19T11:04:11;9.50;;;7.27;;
12088;SDS011;6107;49.078;8.578;2023-04-19T11:06:55;12.07;;;7.07;;
12088;SDS011;6107;49.078;8.578;2023-04-19T11:09:27;16.10;;;9.63;;
12088;SDS011;6107;49.078;8.578;2023-04-19T11:12:06;11.57;;;8.93;;
12088;SDS011;6107;49.078;8.578;2023-04-19T11:14:51;12.53;;;9.33;;
12088;SDS011;6107;49.078;8.578;2023-04-19T11:17:18;12.03;;;8.50;;
12088;SDS011;6107;49.078;8.578;2023-04-19T11:19:52;10.00;;;7.17;;
12088;SDS011;6107;49.078;8.578;2023-04-19T11:22:39;9.53;;;6.97;;
12088;SDS011;6107;49.078;8.578;2023-04-19T11:27:34;8.63;;;6.40;;
12088;SDS011;6107;49.078;8.578;2023-04-19T11:30:04;10.93;;;6.50;;
12088;SDS011;6107;49.078;8.578;2023-04-19T11:32:43;9.17;;;6.97;;
12088;SDS011;6107;49.078;8.578;2023-04-19T11:35:10;8.20;;;6.80;;
12088;SDS011;6107;49.078;8.578;2023-04-19T11:37:36;9.70;;;7.13;;
12088;SDS011;6107;49.078;8.578;2023-04-19T11:40:03;11.77;;;7.03;;
12088;SDS011;6107;49.078;8.578;2023-04-19T11:42:30;8.83;;;6.30;;
12088;SDS011;6107;49.078;8.578;2023-04-19T11:44:56;9.07;;;6.20;;
12088;SDS011;6107;49.078;8.578;2023-04-19T11:47:23;7.33;;;6.30;;
12088;SDS011;6107;49.078;8.578;2023-04-19T11:49:55;7.77;;;6.17;;
12088;SDS011;6107;49.078;8.578;2023-04-19T11:52:22;7.60;;;5.97;;
12088;SDS011;6107;49.078;8.578;2023-04-19T11:54:49;8.97;;;7.13;;
12088;SDS011;6107;49.078;8.578;2023-04-19T11:57:28;10.67;;;7.00;;
12088;SDS011;6107;49.078;8.578;2023-04-19T12:00:01;10.43;;;7.40;;
12088;SDS011;6107;49.078;8.578;2023-04-19T12:02:38;13.23;;;9.47;;
12088;SDS011;6107;49.078;8.578;2023-04-19T12:05:11;14.83;;;9.47;;
12088;SDS011;6107;49.078;8.578;2023-04-19T12:10:22;13.80;;;9.20;;
12088;SDS011;6107;49.078;8.578;2023-04-19T12:12:48;14.37;;;9.70;;
12088;SDS011;6107;49.078;8.578;2023-04-19T12:15:13;11.93;;;8.67;;
12088;SDS011;6107;49.078;8.578;2023-04-19T12:17:58;14.57;;;9.33;;
12088;SDS011;6107;49.078;8.578;2023-04-19T12:20:35;12.10;;;8.87;;
12088;SDS011;6107;49.078;8.578;2023-04-19T12:23:02;17.77;;;9.93;;
12088;SDS011;6107;49.078;8.578;2023-04-19T12:25:29;16.37;;;11.23;;
12088;SDS011;6107;49.078;8.578;2023-04-19T12:27:55;18.07;;;11.07;;
12088;SDS011;6107;49.078;8.578;2023-04-19T12:30:21;14.43;;;10.67;;
12088;SDS011;6107;49.078;8.578;2023-04-19T12:32:47;13.40;;;10.30;;
12088;SDS011;6107;49.078;8.578;2023-04-19T12:35:15;14.40;;;9.93;;
12088;SDS011;6107;49.078;8.578;2023-04-19T12:37:41;14.33;;;9.90;;
12088;SDS011;6107;49.078;8.578;2023-04-19T12:40:06;15.57;;;9.47;;
12088;SDS011;6107;49.078;8.578;2023-04-19T12:42:32;15.17;;;10.20;;
12088;SDS011;6107;49.078;8.578;2023-04-19T12:44:57;15.70;;;10.30;;
12088;SDS011;6107;49.078;8.578;2023-04-19T12:47:23;16.13;;;10.37;;
12088;SDS011;6107;49.078;8.578;2023-04-19T12:49:48;14.73;;;10.50;;
12088;SDS011;6107;49.078;8.578;2023-04-19T12:52:14;18.17;;;12.90;;
12088;SDS011;6107;49.078;8.578;2023-04-19T12:54:39;19.63;;;12.47;;
12088;SDS011;6107;49.078;8.578;2023-04-19T12:57:05;20.97;;;15.97;;
12088;SDS011;6107;49.078;8.578;2023-04-19T12:59:30;17.33;;;12.30;;
12088;SDS011;6107;49.078;8.578;2023-04-19T13:01:56;19.87;;;13.50;;
12088;SDS011;6107;49.078;8.578;2023-04-19T13:04:22;21.33;;;12.83;;
12088;SDS011;6107;49.078;8.578;2023-04-19T13:06:47;19.60;;;12.33;;
12088;SDS011;6107;49.078;8.578;2023-04-19T13:09:12;19.00;;;12.20;;
12088;SDS011;6107;49.078;8.578;2023-04-19T13:11:38;20.23;;;13.03;;
12088;SDS011;6107;49.078;8.578;2023-04-19T13:14:03;19.17;;;12.97;;
12088;SDS011;6107;49.078;8.578;2023-04-19T13:16:29;19.70;;;12.97;;
12088;SDS011;6107;49.078;8.578;2023-04-19T13:18:54;18.30;;;12.30;;
12088;SDS011;6107;49.078;8.578;2023-04-19T13:21:20;17.40;;;11.83;;
12088;SDS011;6107;49.078;8.578;2023-04-19T13:23:47;19.97;;;12.20;;
12088;SDS011;6107;49.078;8.578;2023-04-19T13:26:13;16.40;;;10.37;;
12088;SDS011;6107;49.078;8.578;2023-04-19T13:28:40;15.03;;;10.50;;
12088;SDS011;6107;49.078;8.578;2023-04-19T13:31:06;15.00;;;9.73;;
12088;SDS011;6107;49.078;8.578;2023-04-19T13:33:32;16.43;;;9.83;;
12088;SDS011;6107;49.078;8.578;2023-04-19T13:35:58;16.27;;;9.30;;
12088;SDS011;6107;49.078;8.578;2023-04-19T13:38:23;14.47;;;9.33;;
12088;SDS011;6107;49.078;8.578;2023-04-19T13:40:49;14.23;;;9.37;;
12088;SDS011;6107;49.078;8.578;2023-04-19T13:43:15;15.20;;;8.83;;
12088;SDS011;6107;49.078;8.578;2023-04-19T13:45:40;13.10;;;9.03;;
12088;SDS011;6107;49.078;8.578;2023-04-19T13:48:06;13.30;;;8.90;;
12088;SDS011;6107;49.078;8.578;2023-04-19T13:50:31;17.20;;;10.27;;
12088;SDS011;6107;49.078;8.578;2023-04-19T13:52:57;11.73;;;8.43;;
12088;SDS011;6107;49.078;8.578;2023-04-19T13:55:22;12.07;;;8.63;;
12088;SDS011;6107;49.078;8.578;2023-04-19T13:57:48;13.90;;;8.30;;
12088;SDS011;6107;49.078;8.578;2023-04-19T14:00:13;12.80;;;8.80;;
12088;SDS011;6107;49.078;8.578;2023-04-19T14:02:39;13.63;;;8.53;;
12088;SDS011;6107;49.078;8.578;2023-04-19T14:05:05;10.50;;;7.97;;
12088;SDS011;6107;49.078;8.578;2023-04-19T14:07:31;11.37;;;7.43;;
12088;SDS011;6107;49.078;8.578;2023-04-19T14:09:56;11.20;;;8.20;;
12088;SDS011;6107;49.078;8.578;2023-04-19T14:12:22;11.57;;;7.70;;
12088;SDS011;6107;49.078;8.578;2023-04-19T14:14:48;11.30;;;8.20;;
12088;SDS011;6107;49.078;8.578;2023-04-19T14:17:13;13.17;;;8.70;;
12088;SDS011;6107;49.078;8.578;2023-04-19T14:19:38;12.07;;;8.30;;
12088;SDS011;6107;49.078;8.578;2023-04-19T14:22:04;14.07;;;8.43;;
12088;SDS011;6107;49.078;8.578;2023-04-19T14:24:30;10.77;;;7.43;;
12088;SDS011;6107;49.078;8.578;2023-04-19T14:26:55;11.40;;;8.40;;
12088;SDS011;6107;49.078;8.578;2023-04-19T14:29:21;10.30;;;7.60;;
12088;SDS011;6107;49.078;8.578;2023-04-19T14:31:47;10.47;;;7.23;;
12088;SDS011;6107;49.078;8.578;2023-04-19T14:34:12;11.13;;;7.83;;
12088;SDS011;6107;49.078;8.578;2023-04-19T14:36:38;11.87;;;8.33;;
12088;SDS011;6107;49.078;8.578;2023-04-19T14:39:04;14.75;;;7.95;;
12088;SDS011;6107;49.078;8.578;2023-04-19T14:41:30;11.10;;;7.83;;
12088;SDS011;6107;49.078;8.578;2023-04-19T14:43:55;10.67;;;7.17;;
12088;SDS011;6107;49.078;8.578;2023-04-19T14:46:21;11.13;;;7.80;;
12088;SDS011;6107;49.078;8.578;2023-04-19T14:48:46;11.87;;;8.00;;
12088;SDS011;6107;49.078;8.578;2023-04-19T14:51:12;11.50;;;7.40;;
12088;SDS011;6107;49.078;8.578;2023-04-19T14:53:37;10.57;;;7.07;;